sensor_id;sensor_type;location;lat;lon;timestamp;P1;durP1;ratioP1;P2;durP2;ratioP2
70388;SDS011;58659;49.050;8.530;2023-10-31T00:00:17;0.40;;;0.40;;
70388;SDS011;58659;49.050;8.530;2023-10-31T00:02:42;0.57;;;0.57;;
70388;SDS011;58659;49.050;8.530;2023-10-31T00:05:08;0.60;;;0.60;;
70388;SDS011;58659;49.050;8.530;2023-10-31T00:07:33;0.40;;;0.40;;
70388;SDS011;58659;49.050;8.530;2023-10-31T00:09:58;0.50;;;0.50;;
70388;SDS011;58659;49.050;8.530;2023-10-31T00:12:24;0.50;;;0.50;;
70388;SDS011;58659;49.050;8.530;2023-10-31T00:14:49;0.60;;;0.60;;
70388;SDS011;58659;49.050;8.530;2023-10-31T00:17:14;0.50;;;0.50;;
70388;SDS011;58659;49.050;8.530;2023-10-31T00:19:39;0.47;;;0.47;;
70388;SDS011;58659;49.050;8.530;2023-10-31T00:22:05;0.60;;;0.60;;
70388;SDS011;58659;49.050;8.530;2023-10-31T00:24:30;0.50;;;0.50;;
70388;SDS011;58659;49.050;8.530;2023-10-31T00:26:57;0.40;;;0.40;;
70388;SDS011;58659;49.050;8.530;2023-10-31T00:29:22;0.40;;;0.40;;
70388;SDS011;58659;49.050;8.530;2023-10-31T00:31:47;0.50;;;0.50;;
70388;SDS011;58659;49.050;8.530;2023-10-31T00:34:12;0.50;;;0.50;;
70388;SDS011;58659;49.050;8.530;2023-10-31T00:36:38;0.60;;;0.60;;
70388;SDS011;58659;49.050;8.530;2023-10-31T00:39:03;0.40;;;0.40;;
70388;SDS011;58659;49.050;8.530;2023-10-31T00:41:28;1.23;;;1.13;;
70388;SDS011;58659;49.050;8.530;2023-10-31T00:43:53;1.10;;;0.80;;
70388;SDS011;58659;49.050;8.530;2023-10-31T00:46:19;0.70;;;0.70;;
70388;SDS011;58659;49.050;8.530;2023-10-31T00:48:44;0.77;;;0.77;;
70388;SDS011;58659;49.050;8.530;2023-10-31T00:51:09;1.87;;;1.17;;
70388;SDS011;58659;49.050;8.530;2023-10-31T00:53:34;1.40;;;0.80;;
70388;SDS011;58659;49.050;8.530;2023-10-31T00:55:59;0.80;;;0.80;;
70388;SDS011;58659;49.050;8.530;2023-10-31T00:58:25;2.40;;;0.90;;
70388;SDS011;58659;49.050;8.530;2023-10-31T01:00:50;1.03;;;0.90;;
70388;SDS011;58659;49.050;8.530;2023-10-31T01:03:15;2.57;;;1.20;;
70388;SDS011;58659;49.050;8.530;2023-10-31T01:05:40;1.10;;;1.00;;
70388;SDS011;58659;49.050;8.530;2023-10-31T01:08:05;2.20;;;0.90;;
70388;SDS011;58659;49.050;8.530;2023-10-31T01:10:31;0.80;;;0.80;;
70388;SDS011;58659;49.050;8.530;2023-10-31T01:12:56;0.80;;;0.80;;
70388;SDS011;58659;49.050;8.530;2023-10-31T01:15:21;1.10;;;0.90;;
70388;SDS011;58659;49.050;8.530;2023-10-31T01:17:46;1.07;;;0.70;;
70388;SDS011;58659;49.050;8.530;2023-10-31T01:20:12;1.17;;;0.70;;
70388;SDS011;58659;49.050;8.530;2023-10-31T01:22:37;1.53;;;0.90;;
70388;SDS011;58659;49.050;8.530;2023-10-31T01:25:02;0.97;;;0.90;;
70388;SDS011;58659;49.050;8.530;2023-10-31T01:27:27;2.70;;;0.80;;
70388;SDS011;58659;49.050;8.530;2023-10-31T01:29:53;0.70;;;0.70;;
70388;SDS011;58659;49.050;8.530;2023-10-31T01:32:18;0.93;;;0.80;;
70388;SDS011;58659;49.050;8.530;2023-10-31T01:34:43;1.20;;;0.70;;
70388;SDS011;58659;49.050;8.530;2023-10-31T01:37:08;0.70;;;0.70;;
70388;SDS011;58659;49.050;8.530;2023-10-31T01:39:35;0.70;;;0.70;;
70388;SDS011;58659;49.050;8.530;2023-10-31T01:42:03;2.00;;;0.80;;
70388;SDS011;58659;49.050;8.530;2023-10-31T01:44:29;3.30;;;0.70;;
70388;SDS011;58659;49.050;8.530;2023-10-31T01:46:57;1.87;;;0.70;;
70388;SDS011;58659;49.050;8.530;2023-10-31T01:49:22;2.70;;;0.80;;
70388;SDS011;58659;49.050;8.530;2023-10-31T01:51:48;2.20;;;0.73;;
70388;SDS011;58659;49.050;8.530;2023-10-31T01:54:14;0.80;;;0.80;;
70388;SDS011;58659;49.050;8.530;2023-10-31T01:56:39;1.50;;;0.70;;
70388;SDS011;58659;49.050;8.530;2023-10-31T01:59:05;1.23;;;1.10;;
70388;SDS011;58659;49.050;8.530;2023-10-31T02:01:31;1.13;;;0.80;;
70388;SDS011;58659;49.050;8.530;2023-10-31T02:03:56;0.80;;;0.63;;
70388;SDS011;58659;49.050;8.530;2023-10-31T02:06:23;2.60;;;0.87;;
70388;SDS011;58659;49.050;8.530;2023-10-31T02:08:48;0.80;;;0.50;;
70388;SDS011;58659;49.050;8.530;2023-10-31T02:11:13;2.13;;;0.80;;
70388;SDS011;58659;49.050;8.530;2023-10-31T02:13:39;1.20;;;0.93;;
70388;SDS011;58659;49.050;8.530;2023-10-31T02:16:04;1.00;;;0.70;;
70388;SDS011;58659;49.050;8.530;2023-10-31T02:18:30;1.67;;;0.87;;
70388;SDS011;58659;49.050;8.530;2023-10-31T02:20:55;0.73;;;0.70;;
70388;SDS011;58659;49.050;8.530;2023-10-31T02:23:20;2.70;;;0.70;;
70388;SDS011;58659;49.050;8.530;2023-10-31T02:25:45;0.97;;;0.83;;
70388;SDS011;58659;49.050;8.530;2023-10-31T02:28:10;1.80;;;0.80;;
70388;SDS011;58659;49.050;8.530;2023-10-31T02:30:36;1.13;;;0.87;;
70388;SDS011;58659;49.050;8.530;2023-10-31T02:33:01;0.80;;;0.80;;
70388;SDS011;58659;49.050;8.530;2023-10-31T02:35:27;2.70;;;0.80;;
70388;SDS011;58659;49.050;8.530;2023-10-31T02:37:52;0.97;;;0.90;;
70388;SDS011;58659;49.050;8.530;2023-10-31T02:40:17;1.27;;;0.80;;
70388;SDS011;58659;49.050;8.530;2023-10-31T02:42:43;1.27;;;0.90;;
70388;SDS011;58659;49.050;8.530;2023-10-31T02:45:08;1.70;;;1.00;;
70388;SDS011;58659;49.050;8.530;2023-10-31T02:47:33;1.27;;;0.90;;
70388;SDS011;58659;49.050;8.530;2023-10-31T02:49:59;1.00;;;0.83;;
70388;SDS011;58659;49.050;8.530;2023-10-31T02:52:24;1.17;;;0.80;;
70388;SDS011;58659;49.050;8.530;2023-10-31T02:54:49;0.77;;;0.77;;
70388;SDS011;58659;49.050;8.530;2023-10-31T02:57:15;0.80;;;0.80;;
70388;SDS011;58659;49.050;8.530;2023-10-31T02:59:40;1.30;;;0.80;;
70388;SDS011;58659;49.050;8.530;2023-10-31T03:02:05;1.03;;;0.80;;
70388;SDS011;58659;49.050;8.530;2023-10-31T03:04:30;3.60;;;0.83;;
70388;SDS011;58659;49.050;8.530;2023-10-31T03:06:56;0.70;;;0.70;;
70388;SDS011;58659;49.050;8.530;2023-10-31T03:09:21;1.10;;;1.00;;
70388;SDS011;58659;49.050;8.530;2023-10-31T03:11:46;2.40;;;0.80;;
70388;SDS011;58659;49.050;8.530;2023-10-31T03:14:11;0.73;;;0.73;;
70388;SDS011;58659;49.050;8.530;2023-10-31T03:16:36;1.13;;;0.90;;
70388;SDS011;58659;49.050;8.530;2023-10-31T03:19:02;0.93;;;0.80;;
70388;SDS011;58659;49.050;8.530;2023-10-31T03:21:27;0.67;;;0.60;;
70388;SDS011;58659;49.050;8.530;2023-10-31T03:23:52;1.03;;;1.03;;
70388;SDS011;58659;49.050;8.530;2023-10-31T03:26:18;0.60;;;0.60;;
70388;SDS011;58659;49.050;8.530;2023-10-31T03:28:43;1.30;;;0.70;;
70388;SDS011;58659;49.050;8.530;2023-10-31T03:31:09;0.80;;;0.80;;
70388;SDS011;58659;49.050;8.530;2023-10-31T03:33:35;0.80;;;0.80;;
70388;SDS011;58659;49.050;8.530;2023-10-31T03:36:00;1.30;;;0.70;;
70388;SDS011;58659;49.050;8.530;2023-10-31T03:38:25;0.80;;;0.80;;
70388;SDS011;58659;49.050;8.530;2023-10-31T03:40:50;0.80;;;0.70;;
70388;SDS011;58659;49.050;8.530;2023-10-31T03:43:16;0.77;;;0.77;;
70388;SDS011;58659;49.050;8.530;2023-10-31T03:45:41;0.70;;;0.70;;
70388;SDS011;58659;49.050;8.530;2023-10-31T03:48:06;1.80;;;0.90;;
70388;SDS011;58659;49.050;8.530;2023-10-31T03:50:31;1.23;;;0.80;;
70388;SDS011;58659;49.050;8.530;2023-10-31T03:52:56;1.53;;;0.70;;
70388;SDS011;58659;49.050;8.530;2023-10-31T03:55:22;0.70;;;0.70;;
70388;SDS011;58659;49.050;8.530;2023-10-31T03:57:47;1.80;;;1.13;;
70388;SDS011;58659;49.050;8.530;2023-10-31T04:00:12;0.70;;;0.63;;
70388;SDS011;58659;49.050;8.530;2023-10-31T04:02:39;0.80;;;0.80;;
70388;SDS011;58659;49.050;8.530;2023-10-31T04:05:04;1.27;;;0.80;;
70388;SDS011;58659;49.050;8.530;2023-10-31T04:07:29;2.10;;;0.80;;
70388;SDS011;58659;49.050;8.530;2023-10-31T04:09:54;1.23;;;0.80;;
70388;SDS011;58659;49.050;8.530;2023-10-31T04:12:21;0.80;;;0.80;;
70388;SDS011;58659;49.050;8.530;2023-10-31T04:14:46;0.73;;;0.60;;
70388;SDS011;58659;49.050;8.530;2023-10-31T04:17:11;1.40;;;0.70;;
70388;SDS011;58659;49.050;8.530;2023-10-31T04:19:37;0.67;;;0.67;;
70388;SDS011;58659;49.050;8.530;2023-10-31T04:22:02;1.13;;;0.87;;
70388;SDS011;58659;49.050;8.530;2023-10-31T04:24:27;2.67;;;0.80;;
70388;SDS011;58659;49.050;8.530;2023-10-31T04:26:52;1.13;;;0.83;;
70388;SDS011;58659;49.050;8.530;2023-10-31T04:29:18;0.73;;;0.70;;
70388;SDS011;58659;49.050;8.530;2023-10-31T04:31:43;0.70;;;0.70;;
70388;SDS011;58659;49.050;8.530;2023-10-31T04:34:08;0.77;;;0.77;;
70388;SDS011;58659;49.050;8.530;2023-10-31T04:36:33;0.60;;;0.60;;
70388;SDS011;58659;49.050;8.530;2023-10-31T04:38:58;0.90;;;0.77;;
70388;SDS011;58659;49.050;8.530;2023-10-31T04:41:24;2.90;;;0.73;;
70388;SDS011;58659;49.050;8.530;2023-10-31T04:43:49;0.60;;;0.60;;
70388;SDS011;58659;49.050;8.530;2023-10-31T04:46:14;2.60;;;0.77;;
70388;SDS011;58659;49.050;8.530;2023-10-31T04:48:39;0.83;;;0.70;;
70388;SDS011;58659;49.050;8.530;2023-10-31T04:51:04;1.17;;;0.70;;
70388;SDS011;58659;49.050;8.530;2023-10-31T04:53:30;0.83;;;0.70;;
70388;SDS011;58659;49.050;8.530;2023-10-31T04:55:57;0.70;;;0.70;;
70388;SDS011;58659;49.050;8.530;2023-10-31T04:58:22;0.87;;;0.83;;
70388;SDS011;58659;49.050;8.530;2023-10-31T05:00:47;1.73;;;1.00;;
70388;SDS011;58659;49.050;8.530;2023-10-31T05:03:12;0.70;;;0.70;;
70388;SDS011;58659;49.050;8.530;2023-10-31T05:05:37;0.70;;;0.70;;
70388;SDS011;58659;49.050;8.530;2023-10-31T05:08:03;0.60;;;0.60;;
70388;SDS011;58659;49.050;8.530;2023-10-31T05:10:28;0.60;;;0.60;;
70388;SDS011;58659;49.050;8.530;2023-10-31T05:12:53;1.70;;;0.70;;
70388;SDS011;58659;49.050;8.530;2023-10-31T05:15:19;0.80;;;0.70;;
70388;SDS011;58659;49.050;8.530;2023-10-31T05:17:44;0.63;;;0.63;;
70388;SDS011;58659;49.050;8.530;2023-10-31T05:20:09;0.60;;;0.60;;
70388;SDS011;58659;49.050;8.530;2023-10-31T05:22:36;0.60;;;0.60;;
70388;SDS011;58659;49.050;8.530;2023-10-31T05:25:01;0.67;;;0.67;;
70388;SDS011;58659;49.050;8.530;2023-10-31T05:27:27;0.80;;;0.80;;
70388;SDS011;58659;49.050;8.530;2023-10-31T05:29:52;0.60;;;0.60;;
70388;SDS011;58659;49.050;8.530;2023-10-31T05:32:18;0.73;;;0.70;;
70388;SDS011;58659;49.050;8.530;2023-10-31T05:34:43;1.73;;;0.70;;
70388;SDS011;58659;49.050;8.530;2023-10-31T05:37:08;0.63;;;0.63;;
70388;SDS011;58659;49.050;8.530;2023-10-31T05:39:33;1.27;;;0.80;;
70388;SDS011;58659;49.050;8.530;2023-10-31T05:41:58;1.90;;;0.80;;
70388;SDS011;58659;49.050;8.530;2023-10-31T05:44:24;0.77;;;0.77;;
70388;SDS011;58659;49.050;8.530;2023-10-31T05:46:49;1.03;;;0.80;;
70388;SDS011;58659;49.050;8.530;2023-10-31T05:49:14;1.07;;;0.87;;
70388;SDS011;58659;49.050;8.530;2023-10-31T05:51:39;0.80;;;0.67;;
70388;SDS011;58659;49.050;8.530;2023-10-31T05:54:06;0.60;;;0.60;;
70388;SDS011;58659;49.050;8.530;2023-10-31T05:56:32;2.20;;;0.90;;
70388;SDS011;58659;49.050;8.530;2023-10-31T05:58:57;0.80;;;0.80;;
70388;SDS011;58659;49.050;8.530;2023-10-31T06:01:22;0.77;;;0.73;;
70388;SDS011;58659;49.050;8.530;2023-10-31T06:03:47;0.70;;;0.70;;
70388;SDS011;58659;49.050;8.530;2023-10-31T06:06:12;1.07;;;0.80;;
70388;SDS011;58659;49.050;8.530;2023-10-31T06:08:38;2.50;;;0.80;;
70388;SDS011;58659;49.050;8.530;2023-10-31T06:11:03;0.70;;;0.70;;
70388;SDS011;58659;49.050;8.530;2023-10-31T06:13:29;2.47;;;0.70;;
70388;SDS011;58659;49.050;8.530;2023-10-31T06:15:56;1.30;;;0.70;;
70388;SDS011;58659;49.050;8.530;2023-10-31T06:18:22;0.93;;;0.70;;
70388;SDS011;58659;49.050;8.530;2023-10-31T06:20:48;1.03;;;0.70;;
70388;SDS011;58659;49.050;8.530;2023-10-31T06:23:13;1.17;;;0.70;;
70388;SDS011;58659;49.050;8.530;2023-10-31T06:25:38;0.70;;;0.70;;
70388;SDS011;58659;49.050;8.530;2023-10-31T06:28:04;1.73;;;1.10;;
70388;SDS011;58659;49.050;8.530;2023-10-31T06:30:29;1.57;;;0.73;;
70388;SDS011;58659;49.050;8.530;2023-10-31T06:32:54;2.43;;;0.80;;
70388;SDS011;58659;49.050;8.530;2023-10-31T06:35:19;2.63;;;0.70;;
70388;SDS011;58659;49.050;8.530;2023-10-31T06:37:44;1.93;;;0.80;;
70388;SDS011;58659;49.050;8.530;2023-10-31T06:40:10;1.33;;;1.23;;
70388;SDS011;58659;49.050;8.530;2023-10-31T06:42:35;4.27;;;1.37;;
70388;SDS011;58659;49.050;8.530;2023-10-31T06:45:01;3.13;;;0.90;;
70388;SDS011;58659;49.050;8.530;2023-10-31T06:47:26;0.90;;;0.87;;
70388;SDS011;58659;49.050;8.530;2023-10-31T06:49:51;0.67;;;0.67;;
70388;SDS011;58659;49.050;8.530;2023-10-31T06:52:17;0.80;;;0.80;;
70388;SDS011;58659;49.050;8.530;2023-10-31T06:54:42;0.70;;;0.70;;
70388;SDS011;58659;49.050;8.530;2023-10-31T06:57:07;2.43;;;0.90;;
70388;SDS011;58659;49.050;8.530;2023-10-31T06:59:32;1.67;;;0.80;;
70388;SDS011;58659;49.050;8.530;2023-10-31T07:01:57;0.80;;;0.80;;
70388;SDS011;58659;49.050;8.530;2023-10-31T07:04:22;0.70;;;0.70;;
70388;SDS011;58659;49.050;8.530;2023-10-31T07:06:48;4.77;;;1.20;;
70388;SDS011;58659;49.050;8.530;2023-10-31T07:09:13;2.23;;;0.83;;
70388;SDS011;58659;49.050;8.530;2023-10-31T07:11:39;1.90;;;1.00;;
70388;SDS011;58659;49.050;8.530;2023-10-31T07:14:04;1.13;;;0.90;;
70388;SDS011;58659;49.050;8.530;2023-10-31T07:16:31;0.90;;;0.90;;
70388;SDS011;58659;49.050;8.530;2023-10-31T07:18:56;2.00;;;0.90;;
70388;SDS011;58659;49.050;8.530;2023-10-31T07:21:21;0.77;;;0.77;;
70388;SDS011;58659;49.050;8.530;2023-10-31T07:23:46;0.97;;;0.80;;
70388;SDS011;58659;49.050;8.530;2023-10-31T07:26:12;1.33;;;0.80;;
70388;SDS011;58659;49.050;8.530;2023-10-31T07:28:37;1.43;;;1.00;;
70388;SDS011;58659;49.050;8.530;2023-10-31T07:31:02;0.80;;;0.80;;
70388;SDS011;58659;49.050;8.530;2023-10-31T07:33:27;1.20;;;1.10;;
70388;SDS011;58659;49.050;8.530;2023-10-31T07:35:53;0.73;;;0.73;;
70388;SDS011;58659;49.050;8.530;2023-10-31T07:38:18;5.17;;;1.00;;
70388;SDS011;58659;49.050;8.530;2023-10-31T07:40:43;3.00;;;0.80;;
70388;SDS011;58659;49.050;8.530;2023-10-31T07:43:08;1.23;;;0.83;;
70388;SDS011;58659;49.050;8.530;2023-10-31T07:45:33;2.03;;;0.90;;
70388;SDS011;58659;49.050;8.530;2023-10-31T07:47:58;3.00;;;0.93;;
70388;SDS011;58659;49.050;8.530;2023-10-31T07:50:24;1.37;;;0.90;;
70388;SDS011;58659;49.050;8.530;2023-10-31T07:52:49;4.10;;;0.90;;
70388;SDS011;58659;49.050;8.530;2023-10-31T07:55:14;1.50;;;1.00;;
70388;SDS011;58659;49.050;8.530;2023-10-31T07:57:39;1.43;;;0.87;;
70388;SDS011;58659;49.050;8.530;2023-10-31T08:00:08;0.93;;;0.83;;
70388;SDS011;58659;49.050;8.530;2023-10-31T08:02:36;2.73;;;1.07;;
70388;SDS011;58659;49.050;8.530;2023-10-31T08:05:02;1.13;;;0.73;;
70388;SDS011;58659;49.050;8.530;2023-10-31T08:07:27;2.73;;;1.00;;
70388;SDS011;58659;49.050;8.530;2023-10-31T08:09:55;1.23;;;0.93;;
70388;SDS011;58659;49.050;8.530;2023-10-31T08:12:20;3.10;;;1.00;;
70388;SDS011;58659;49.050;8.530;2023-10-31T08:14:45;2.23;;;1.00;;
70388;SDS011;58659;49.050;8.530;2023-10-31T08:17:11;2.30;;;1.00;;
70388;SDS011;58659;49.050;8.530;2023-10-31T08:19:36;1.13;;;1.00;;
70388;SDS011;58659;49.050;8.530;2023-10-31T08:22:03;1.40;;;0.80;;
70388;SDS011;58659;49.050;8.530;2023-10-31T08:24:28;1.53;;;1.00;;
70388;SDS011;58659;49.050;8.530;2023-10-31T08:26:54;2.00;;;0.80;;
70388;SDS011;58659;49.050;8.530;2023-10-31T08:29:19;1.53;;;0.80;;
70388;SDS011;58659;49.050;8.530;2023-10-31T08:31:44;3.57;;;1.00;;
70388;SDS011;58659;49.050;8.530;2023-10-31T08:34:09;4.33;;;1.00;;
70388;SDS011;58659;49.050;8.530;2023-10-31T08:36:35;4.63;;;1.27;;
70388;SDS011;58659;49.050;8.530;2023-10-31T08:39:00;1.43;;;1.20;;
70388;SDS011;58659;49.050;8.530;2023-10-31T08:41:25;2.80;;;0.90;;
70388;SDS011;58659;49.050;8.530;2023-10-31T08:43:50;1.87;;;1.00;;
70388;SDS011;58659;49.050;8.530;2023-10-31T08:46:16;1.87;;;0.73;;
70388;SDS011;58659;49.050;8.530;2023-10-31T08:48:41;3.93;;;1.30;;
70388;SDS011;58659;49.050;8.530;2023-10-31T08:51:06;1.90;;;0.87;;
70388;SDS011;58659;49.050;8.530;2023-10-31T08:53:31;0.80;;;0.80;;
70388;SDS011;58659;49.050;8.530;2023-10-31T08:55:56;2.57;;;0.93;;
70388;SDS011;58659;49.050;8.530;2023-10-31T08:58:22;2.47;;;1.07;;
70388;SDS011;58659;49.050;8.530;2023-10-31T09:00:47;4.90;;;1.10;;
70388;SDS011;58659;49.050;8.530;2023-10-31T09:03:12;0.80;;;0.70;;
70388;SDS011;58659;49.050;8.530;2023-10-31T09:05:37;3.67;;;0.90;;
70388;SDS011;58659;49.050;8.530;2023-10-31T09:08:03;2.63;;;1.10;;
70388;SDS011;58659;49.050;8.530;2023-10-31T09:10:28;1.00;;;0.80;;
70388;SDS011;58659;49.050;8.530;2023-10-31T09:12:53;3.53;;;1.30;;
70388;SDS011;58659;49.050;8.530;2023-10-31T09:15:19;7.73;;;1.30;;
70388;SDS011;58659;49.050;8.530;2023-10-31T09:17:44;2.30;;;0.93;;
70388;SDS011;58659;49.050;8.530;2023-10-31T09:20:09;1.63;;;0.90;;
70388;SDS011;58659;49.050;8.530;2023-10-31T09:22:36;4.07;;;0.80;;
70388;SDS011;58659;49.050;8.530;2023-10-31T09:25:01;1.33;;;0.80;;
70388;SDS011;58659;49.050;8.530;2023-10-31T09:27:27;1.07;;;0.80;;
70388;SDS011;58659;49.050;8.530;2023-10-31T09:29:52;1.73;;;0.97;;
70388;SDS011;58659;49.050;8.530;2023-10-31T09:32:18;5.37;;;1.00;;
70388;SDS011;58659;49.050;8.530;2023-10-31T09:34:43;2.30;;;0.80;;
70388;SDS011;58659;49.050;8.530;2023-10-31T09:37:08;4.13;;;0.80;;
70388;SDS011;58659;49.050;8.530;2023-10-31T09:39:33;1.17;;;0.87;;
70388;SDS011;58659;49.050;8.530;2023-10-31T09:41:58;3.20;;;0.90;;
70388;SDS011;58659;49.050;8.530;2023-10-31T09:44:24;3.27;;;0.83;;
70388;SDS011;58659;49.050;8.530;2023-10-31T09:46:49;1.13;;;0.80;;
70388;SDS011;58659;49.050;8.530;2023-10-31T09:49:16;1.90;;;0.93;;
70388;SDS011;58659;49.050;8.530;2023-10-31T09:51:42;4.40;;;1.13;;
70388;SDS011;58659;49.050;8.530;2023-10-31T09:54:07;3.70;;;1.20;;
70388;SDS011;58659;49.050;8.530;2023-10-31T09:56:33;6.17;;;1.13;;
70388;SDS011;58659;49.050;8.530;2023-10-31T09:59:00;3.27;;;1.00;;
70388;SDS011;58659;49.050;8.530;2023-10-31T10:01:25;1.83;;;1.00;;
70388;SDS011;58659;49.050;8.530;2023-10-31T10:03:50;1.77;;;1.00;;
70388;SDS011;58659;49.050;8.530;2023-10-31T10:06:16;4.57;;;0.97;;
70388;SDS011;58659;49.050;8.530;2023-10-31T10:08:41;3.30;;;1.20;;
70388;SDS011;58659;49.050;8.530;2023-10-31T10:11:06;4.23;;;1.10;;
70388;SDS011;58659;49.050;8.530;2023-10-31T10:13:32;1.93;;;0.97;;
70388;SDS011;58659;49.050;8.530;2023-10-31T10:15:57;3.10;;;0.97;;
70388;SDS011;58659;49.050;8.530;2023-10-31T10:18:24;1.33;;;1.07;;
70388;SDS011;58659;49.050;8.530;2023-10-31T10:20:59;3.10;;;1.60;;
70388;SDS011;58659;49.050;8.530;2023-10-31T10:23:25;1.20;;;0.87;;
70388;SDS011;58659;49.050;8.530;2023-10-31T10:25:51;3.67;;;1.27;;
70388;SDS011;58659;49.050;8.530;2023-10-31T10:28:17;3.07;;;1.20;;
70388;SDS011;58659;49.050;8.530;2023-10-31T10:30:45;1.50;;;0.93;;
70388;SDS011;58659;49.050;8.530;2023-10-31T10:33:10;4.30;;;1.20;;
70388;SDS011;58659;49.050;8.530;2023-10-31T10:35:35;3.10;;;1.03;;
70388;SDS011;58659;49.050;8.530;2023-10-31T10:38:00;2.00;;;0.77;;
70388;SDS011;58659;49.050;8.530;2023-10-31T10:40:26;1.47;;;0.70;;
70388;SDS011;58659;49.050;8.530;2023-10-31T10:42:51;2.10;;;0.90;;
70388;SDS011;58659;49.050;8.530;2023-10-31T10:45:22;3.80;;;1.07;;
70388;SDS011;58659;49.050;8.530;2023-10-31T10:47:49;1.67;;;1.00;;
70388;SDS011;58659;49.050;8.530;2023-10-31T10:50:15;2.57;;;0.87;;
70388;SDS011;58659;49.050;8.530;2023-10-31T10:52:48;2.03;;;0.80;;
70388;SDS011;58659;49.050;8.530;2023-10-31T10:55:21;1.73;;;0.83;;
70388;SDS011;58659;49.050;8.530;2023-10-31T11:00:19;7.70;;;1.00;;
70388;SDS011;58659;49.050;8.530;2023-10-31T11:02:49;2.20;;;0.70;;
70388;SDS011;58659;49.050;8.530;2023-10-31T11:05:17;1.90;;;1.00;;
70388;SDS011;58659;49.050;8.530;2023-10-31T11:07:42;2.13;;;0.90;;
70388;SDS011;58659;49.050;8.530;2023-10-31T11:10:08;1.70;;;1.20;;
70388;SDS011;58659;49.050;8.530;2023-10-31T11:12:33;0.87;;;0.70;;
70388;SDS011;58659;49.050;8.530;2023-10-31T11:14:58;1.90;;;0.70;;
70388;SDS011;58659;49.050;8.530;2023-10-31T11:17:27;1.00;;;0.90;;
70388;SDS011;58659;49.050;8.530;2023-10-31T11:19:53;2.50;;;0.90;;
70388;SDS011;58659;49.050;8.530;2023-10-31T11:22:19;1.57;;;1.00;;
70388;SDS011;58659;49.050;8.530;2023-10-31T11:24:44;2.23;;;0.80;;
70388;SDS011;58659;49.050;8.530;2023-10-31T11:27:09;0.97;;;0.87;;
70388;SDS011;58659;49.050;8.530;2023-10-31T11:29:35;2.10;;;0.80;;
70388;SDS011;58659;49.050;8.530;2023-10-31T11:32:01;6.43;;;1.00;;
70388;SDS011;58659;49.050;8.530;2023-10-31T11:34:26;0.80;;;0.80;;
70388;SDS011;58659;49.050;8.530;2023-10-31T11:36:51;1.17;;;0.70;;
70388;SDS011;58659;49.050;8.530;2023-10-31T11:39:21;1.23;;;0.80;;
70388;SDS011;58659;49.050;8.530;2023-10-31T11:41:50;6.27;;;1.10;;
70388;SDS011;58659;49.050;8.530;2023-10-31T11:44:18;1.67;;;1.00;;
70388;SDS011;58659;49.050;8.530;2023-10-31T11:46:46;1.67;;;1.00;;
70388;SDS011;58659;49.050;8.530;2023-10-31T11:49:15;3.27;;;1.13;;
70388;SDS011;58659;49.050;8.530;2023-10-31T11:51:40;1.60;;;1.13;;
70388;SDS011;58659;49.050;8.530;2023-10-31T11:54:06;4.70;;;1.53;;
70388;SDS011;58659;49.050;8.530;2023-10-31T11:56:33;2.93;;;1.77;;
70388;SDS011;58659;49.050;8.530;2023-10-31T11:59:00;5.23;;;1.77;;
70388;SDS011;58659;49.050;8.530;2023-10-31T12:01:26;4.10;;;1.60;;
70388;SDS011;58659;49.050;8.530;2023-10-31T12:03:51;3.33;;;1.57;;
70388;SDS011;58659;49.050;8.530;2023-10-31T12:06:16;4.37;;;1.60;;
70388;SDS011;58659;49.050;8.530;2023-10-31T12:08:43;3.67;;;1.90;;
70388;SDS011;58659;49.050;8.530;2023-10-31T12:13:37;5.47;;;2.10;;
70388;SDS011;58659;49.050;8.530;2023-10-31T12:16:03;3.73;;;1.97;;
70388;SDS011;58659;49.050;8.530;2023-10-31T12:18:28;4.40;;;2.03;;
70388;SDS011;58659;49.050;8.530;2023-10-31T12:20:55;1.37;;;1.10;;
70388;SDS011;58659;49.050;8.530;2023-10-31T12:23:20;3.90;;;1.30;;
70388;SDS011;58659;49.050;8.530;2023-10-31T12:25:49;2.60;;;1.40;;
70388;SDS011;58659;49.050;8.530;2023-10-31T12:28:20;1.97;;;1.13;;
70388;SDS011;58659;49.050;8.530;2023-10-31T12:30:47;3.50;;;1.20;;
70388;SDS011;58659;49.050;8.530;2023-10-31T12:33:12;4.87;;;1.37;;
70388;SDS011;58659;49.050;8.530;2023-10-31T12:35:37;6.17;;;1.37;;
70388;SDS011;58659;49.050;8.530;2023-10-31T12:38:03;4.27;;;1.10;;
70388;SDS011;58659;49.050;8.530;2023-10-31T12:40:28;1.60;;;0.90;;
70388;SDS011;58659;49.050;8.530;2023-10-31T12:42:53;2.30;;;0.90;;
70388;SDS011;58659;49.050;8.530;2023-10-31T12:45:19;2.13;;;0.90;;
70388;SDS011;58659;49.050;8.530;2023-10-31T12:47:44;2.20;;;1.33;;
70388;SDS011;58659;49.050;8.530;2023-10-31T12:50:13;1.27;;;0.90;;
70388;SDS011;58659;49.050;8.530;2023-10-31T12:55:39;1.50;;;1.03;;
70388;SDS011;58659;49.050;8.530;2023-10-31T12:58:05;1.83;;;1.03;;
70388;SDS011;58659;49.050;8.530;2023-10-31T13:00:34;1.30;;;0.90;;
70388;SDS011;58659;49.050;8.530;2023-10-31T13:03:03;2.20;;;1.33;;
70388;SDS011;58659;49.050;8.530;2023-10-31T13:05:29;3.73;;;1.63;;
70388;SDS011;58659;49.050;8.530;2023-10-31T13:07:54;3.23;;;1.20;;
70388;SDS011;58659;49.050;8.530;2023-10-31T13:10:21;5.40;;;1.30;;
70388;SDS011;58659;49.050;8.530;2023-10-31T13:12:47;2.00;;;0.77;;
70388;SDS011;58659;49.050;8.530;2023-10-31T13:15:15;3.50;;;1.00;;
70388;SDS011;58659;49.050;8.530;2023-10-31T13:17:40;1.23;;;1.00;;
70388;SDS011;58659;49.050;8.530;2023-10-31T13:20:09;2.00;;;1.00;;
70388;SDS011;58659;49.050;8.530;2023-10-31T13:22:35;3.43;;;1.20;;
70388;SDS011;58659;49.050;8.530;2023-10-31T13:25:01;1.10;;;1.00;;
70388;SDS011;58659;49.050;8.530;2023-10-31T13:27:29;2.03;;;1.00;;
70388;SDS011;58659;49.050;8.530;2023-10-31T13:29:54;7.73;;;1.00;;
70388;SDS011;58659;49.050;8.530;2023-10-31T13:32:19;1.20;;;0.80;;
70388;SDS011;58659;49.050;8.530;2023-10-31T13:34:45;0.83;;;0.83;;
70388;SDS011;58659;49.050;8.530;2023-10-31T13:37:10;0.87;;;0.80;;
70388;SDS011;58659;49.050;8.530;2023-10-31T13:39:35;1.50;;;0.83;;
70388;SDS011;58659;49.050;8.530;2023-10-31T13:42:00;1.80;;;0.90;;
70388;SDS011;58659;49.050;8.530;2023-10-31T13:44:26;2.20;;;1.00;;
70388;SDS011;58659;49.050;8.530;2023-10-31T13:46:51;1.00;;;0.80;;
70388;SDS011;58659;49.050;8.530;2023-10-31T13:49:16;1.03;;;0.97;;
70388;SDS011;58659;49.050;8.530;2023-10-31T13:51:41;1.20;;;1.10;;
70388;SDS011;58659;49.050;8.530;2023-10-31T13:54:06;1.37;;;0.90;;
70388;SDS011;58659;49.050;8.530;2023-10-31T13:56:32;4.33;;;0.80;;
70388;SDS011;58659;49.050;8.530;2023-10-31T13:58:58;0.93;;;0.80;;
70388;SDS011;58659;49.050;8.530;2023-10-31T14:01:23;2.83;;;1.00;;
70388;SDS011;58659;49.050;8.530;2023-10-31T14:03:50;0.93;;;0.90;;
70388;SDS011;58659;49.050;8.530;2023-10-31T14:06:16;0.97;;;0.80;;
70388;SDS011;58659;49.050;8.530;2023-10-31T14:08:41;2.63;;;0.77;;
70388;SDS011;58659;49.050;8.530;2023-10-31T14:11:07;1.07;;;0.63;;
70388;SDS011;58659;49.050;8.530;2023-10-31T14:13:32;0.73;;;0.70;;
70388;SDS011;58659;49.050;8.530;2023-10-31T14:15:58;2.63;;;1.00;;
70388;SDS011;58659;49.050;8.530;2023-10-31T14:18:23;2.07;;;0.90;;
70388;SDS011;58659;49.050;8.530;2023-10-31T14:20:48;2.70;;;1.10;;
70388;SDS011;58659;49.050;8.530;2023-10-31T14:23:13;1.10;;;0.80;;
70388;SDS011;58659;49.050;8.530;2023-10-31T14:25:40;1.03;;;0.80;;
70388;SDS011;58659;49.050;8.530;2023-10-31T14:28:06;1.03;;;0.60;;
70388;SDS011;58659;49.050;8.530;2023-10-31T14:30:31;1.90;;;0.90;;
70388;SDS011;58659;49.050;8.530;2023-10-31T14:32:59;2.40;;;1.00;;
70388;SDS011;58659;49.050;8.530;2023-10-31T14:35:24;1.13;;;0.83;;
70388;SDS011;58659;49.050;8.530;2023-10-31T14:37:49;1.67;;;0.83;;
70388;SDS011;58659;49.050;8.530;2023-10-31T14:40:14;1.83;;;0.80;;
70388;SDS011;58659;49.050;8.530;2023-10-31T14:42:39;1.90;;;0.73;;
70388;SDS011;58659;49.050;8.530;2023-10-31T14:45:05;1.07;;;0.83;;